Time;durP1;ratioP1;P1;durP2;ratioP2;P2;SDS_P1;SDS_P2;PMS_P1;PMS_P2;Temp;Humidity;BMP_temperature;BMP_pressure;BME280_temperature;BME280_humidity;BME280_pressure;Samples;Min_cycle;Max_cycle;Signal;HPM_P1;HPM_P2
2024/03/25 00:02:11;;;;;;;8.68;4.60;;;2.90;98.50;;;;;;5110016;28;20053;-84
2024/03/25 00:05:01;;;;;;;10.80;5.00;;;2.90;60.90;;;;;;5112026;28;20129;-80
2024/03/25 00:07:48;;;;;;;11.88;4.55;;;2.90;40.30;;;;;;5092990;28;20050;-85
2024/03/25 00:10:36;;;;;;;12.20;4.75;;;2.90;14.30;;;;;;5086116;28;20064;-86
2024/03/25 00:13:23;;;;;;;13.52;4.43;;;2.90;1.00;;;;;;5073186;28;20429;-86
2024/03/25 00:16:09;;;;;;;10.02;5.55;;;2.90;1.00;;;;;;5086299;28;20052;-86
2024/03/25 00:18:55;;;;;;;9.50;5.38;;;2.90;1.00;;;;;;5074667;28;20108;-84
2024/03/25 00:21:42;;;;;;;13.50;5.68;;;2.90;1.00;;;;;;5074357;28;20052;-86
2024/03/25 00:24:28;;;;;;;10.98;5.05;;;2.90;1.00;;;;;;5090008;28;20070;-86
2024/03/25 00:27:15;;;;;;;9.55;6.13;;;2.90;1.00;;;;;;5080347;28;20047;-81
2024/03/25 00:30:02;;;;;;;13.35;5.18;;;2.90;1.00;;;;;;5103557;28;20028;-86
2024/03/25 00:32:49;;;;;;;12.77;5.75;;;2.90;99.90;;;;;;5086552;28;20044;-86
2024/03/25 00:35:35;;;;;;;7.32;5.05;;;2.90;99.90;;;;;;5087951;28;20069;-85
2024/03/25 00:38:21;;;;;;;17.45;5.70;;;2.80;99.90;;;;;;5090848;28;20112;-84
2024/03/25 00:41:15;;;;;;;9.07;5.05;;;2.80;99.90;;;;;;5082191;28;20044;-87
2024/03/25 00:44:01;;;;;;;15.15;5.43;;;2.80;99.90;;;;;;5078412;28;20044;-83
2024/03/25 00:46:48;;;;;;;12.13;5.13;;;2.80;99.90;;;;;;5092522;28;20036;-80
2024/03/25 00:49:36;;;;;;;9.63;6.03;;;2.80;99.90;;;;;;5099498;27;20092;-80
2024/03/25 00:52:22;;;;;;;14.27;5.82;;;2.80;99.90;;;;;;5099888;28;20112;-77
2024/03/25 00:55:09;;;;;;;10.93;6.13;;;2.80;99.90;;;;;;5102295;28;20028;-78
2024/03/25 00:57:55;;;;;;;16.13;6.00;;;2.80;99.90;;;;;;5092082;28;20049;-84
2024/03/25 01:00:42;;;;;;;12.38;5.25;;;2.80;99.90;;;;;;5078454;28;20040;-82
2024/03/25 01:03:28;;;;;;;11.85;5.72;;;2.80;99.90;;;;;;5065020;28;20055;-85
2024/03/25 01:06:15;;;;;;;12.75;5.18;;;2.80;99.90;;;;;;5081730;28;20051;-84
2024/03/25 01:09:04;;;;;;;14.15;5.55;;;2.70;99.90;;;;;;5073131;28;20440;-83
2024/03/25 01:11:51;;;;;;;19.15;5.78;;;2.80;99.90;;;;;;5068985;28;20485;-83
2024/03/25 01:14:37;;;;;;;9.52;5.65;;;2.80;99.90;;;;;;5089908;28;20119;-83
2024/03/25 01:17:23;;;;;;;16.15;5.55;;;2.80;99.90;;;;;;5085829;28;20043;-84
2024/03/25 01:20:10;;;;;;;14.23;5.80;;;2.90;99.90;;;;;;5085728;28;20148;-80
2024/03/25 01:22:56;;;;;;;14.13;5.45;;;2.80;99.90;;;;;;5092089;28;20032;-81
2024/03/25 01:25:43;;;;;;;14.30;5.60;;;2.90;99.90;;;;;;5082225;28;20048;-83
2024/03/25 01:28:29;;;;;;;14.98;5.43;;;2.90;99.90;;;;;;5076814;28;20063;-84
2024/03/25 01:31:15;;;;;;;12.38;5.35;;;3.00;99.90;;;;;;5076010;28;20596;-83
2024/03/25 01:34:03;;;;;;;9.48;5.30;;;3.00;99.90;;;;;;5083391;28;20048;-76
2024/03/25 01:36:49;;;;;;;13.52;5.55;;;3.10;45.90;;;;;;5077774;28;20046;-87
2024/03/25 01:39:37;;;;;;;9.98;5.40;;;3.10;1.00;;;;;;5077911;28;20105;-76
2024/03/25 01:42:23;;;;;;;11.35;6.00;;;3.00;1.00;;;;;;5084917;28;20052;-87
2024/03/25 01:45:10;;;;;;;10.98;5.65;;;3.00;1.00;;;;;;5078832;28;20040;-85
2024/03/25 01:47:58;;;;;;;12.77;5.80;;;3.00;1.00;;;;;;5081836;28;20047;-86
2024/03/25 01:50:46;;;;;;;13.00;6.45;;;3.10;1.00;;;;;;5073996;28;20040;-85
2024/03/25 01:53:32;;;;;;;14.48;6.13;;;3.00;1.00;;;;;;5076894;28;20509;-86
2024/03/25 01:56:19;;;;;;;7.97;5.50;;;3.00;99.90;;;;;;5080898;28;20044;-88
2024/03/25 01:59:06;;;;;;;13.68;5.93;;;3.10;99.90;;;;;;5082340;28;20111;-85
2024/03/25 02:01:54;;;;;;;23.60;6.63;;;3.10;99.90;;;;;;5082616;28;20035;-84
2024/03/25 02:04:42;;;;;;;12.07;6.05;;;3.00;99.90;;;;;;5073251;28;20374;-84
2024/03/25 02:07:29;;;;;;;14.98;6.72;;;3.00;99.90;;;;;;5074105;28;20051;-83
2024/03/25 02:10:16;;;;;;;15.15;5.95;;;3.00;99.90;;;;;;5074798;28;20524;-77
2024/03/25 02:13:03;;;;;;;11.98;6.25;;;2.90;99.90;;;;;;5072854;28;20130;-83
2024/03/25 02:15:51;;;;;;;12.23;6.50;;;3.00;99.90;;;;;;5073701;28;20044;-78
2024/03/25 02:18:37;;;;;;;13.02;6.60;;;2.90;99.90;;;;;;5081337;28;20051;-85
2024/03/25 02:21:24;;;;;;;9.77;6.53;;;2.90;99.90;;;;;;5068444;28;20462;-81
2024/03/25 02:24:11;;;;;;;9.57;5.80;;;2.90;99.90;;;;;;5081689;28;20048;-84
2024/03/25 02:27:01;;;;;;;14.50;7.07;;;2.90;99.90;;;;;;5079550;28;20566;-84
2024/03/25 02:29:47;;;;;;;15.85;6.57;;;2.90;99.90;;;;;;5073721;28;20584;-85
2024/03/25 02:32:34;;;;;;;15.10;6.70;;;2.80;99.90;;;;;;5072640;28;20051;-87
2024/03/25 02:35:22;;;;;;;11.90;6.40;;;2.80;99.90;;;;;;5072798;28;20051;-87
2024/03/25 02:38:09;;;;;;;13.23;6.40;;;2.80;1.00;;;;;;5071921;28;20051;-86
2024/03/25 02:40:56;;;;;;;14.32;7.05;;;2.80;1.00;;;;;;5058334;28;20069;-85
2024/03/25 02:43:42;;;;;;;12.77;6.20;;;2.80;1.00;;;;;;5072386;28;20154;-87
2024/03/25 02:46:29;;;;;;;16.65;6.80;;;2.80;1.00;;;;;;5059111;28;20419;-85
2024/03/25 02:49:15;;;;;;;13.95;5.90;;;2.80;1.00;;;;;;5059974;28;20582;-85
2024/03/25 02:52:02;;;;;;;13.02;6.53;;;2.80;1.00;;;;;;5075008;28;20039;-86
2024/03/25 02:54:48;;;;;;;14.77;7.35;;;2.80;1.00;;;;;;5079126;28;20052;-80
2024/03/25 02:57:37;;;;;;;9.52;6.18;;;2.80;1.00;;;;;;5083208;28;20046;-85
2024/03/25 03:00:24;;;;;;;15.15;7.18;;;2.80;1.00;;;;;;5059115;28;20040;-76
2024/03/25 03:03:10;;;;;;;15.40;7.07;;;2.70;1.00;;;;;;5069214;28;20044;-84
2024/03/25 03:05:57;;;;;;;16.63;7.13;;;2.70;1.00;;;;;;5072727;28;20040;-84
2024/03/25 03:08:44;;;;;;;18.67;6.70;;;2.60;1.00;;;;;;5073035;28;20100;-84
2024/03/25 03:11:30;;;;;;;12.10;6.32;;;2.60;1.00;;;;;;5068196;28;20104;-84
2024/03/25 03:14:17;;;;;;;13.27;6.60;;;2.60;1.00;;;;;;5073156;28;20400;-84
2024/03/25 03:17:04;;;;;;;12.93;6.53;;;2.60;1.00;;;;;;5074101;28;20108;-83
2024/03/25 03:19:51;;;;;;;13.68;6.82;;;2.70;1.00;;;;;;5072194;28;20043;-84
2024/03/25 03:22:37;;;;;;;14.13;6.85;;;2.70;2.30;;;;;;5073597;28;20058;-84
2024/03/25 03:25:24;;;;;;;13.02;6.75;;;2.60;7.10;;;;;;5073039;28;20089;-86
2024/03/25 03:28:10;;;;;;;12.18;6.85;;;2.60;17.50;;;;;;5083945;28;20048;-85
2024/03/25 03:30:56;;;;;;;12.80;6.63;;;2.60;47.30;;;;;;5094446;28;20103;-81
2024/03/25 03:33:42;;;;;;;14.25;6.47;;;2.60;84.70;;;;;;5079568;28;20104;-86
2024/03/25 03:36:29;;;;;;;12.00;6.57;;;2.50;99.90;;;;;;5070387;28;20040;-81
2024/03/25 03:39:16;;;;;;;16.70;6.95;;;2.50;99.90;;;;;;5080360;28;20041;-85
2024/03/25 03:42:02;;;;;;;12.70;6.57;;;2.50;99.90;;;;;;5074484;28;20565;-86
2024/03/25 03:44:48;;;;;;;16.60;7.35;;;2.50;99.90;;;;;;5071571;28;20040;-85
2024/03/25 03:47:35;;;;;;;11.15;7.18;;;2.60;99.90;;;;;;5075251;28;20103;-83
2024/03/25 03:50:21;;;;;;;15.57;6.68;;;2.60;99.90;;;;;;5059706;28;20051;-83
2024/03/25 03:53:08;;;;;;;14.60;7.18;;;2.60;99.90;;;;;;5072741;28;20040;-82
2024/03/25 03:55:59;;;;;;;10.43;6.50;;;2.70;99.90;;;;;;5065876;28;20074;-81
2024/03/25 03:58:45;;;;;;;16.20;6.85;;;2.70;99.90;;;;;;5069084;28;20504;-84
2024/03/25 04:01:32;;;;;;;11.32;6.60;;;2.70;99.90;;;;;;5057635;28;20065;-84
2024/03/25 04:04:18;;;;;;;8.88;5.97;;;2.70;99.90;;;;;;5070677;28;20044;-86
2024/03/25 04:07:04;;;;;;;11.88;6.47;;;2.60;99.90;;;;;;5070738;28;20044;-82
2024/03/25 04:09:51;;;;;;;12.07;6.35;;;2.60;99.90;;;;;;5075597;28;20537;-77
2024/03/25 04:12:39;;;;;;;12.25;6.55;;;2.60;99.90;;;;;;5069384;28;20040;-85
2024/03/25 04:15:26;;;;;;;11.43;6.38;;;2.60;99.90;;;;;;5078076;28;20048;-76
2024/03/25 04:18:14;;;;;;;14.30;6.10;;;2.60;99.90;;;;;;5077758;28;20036;-83
2024/03/25 04:21:00;;;;;;;12.13;6.28;;;2.50;99.90;;;;;;5070979;28;20044;-85
2024/03/25 04:23:46;;;;;;;14.75;6.72;;;2.50;99.90;;;;;;5071281;28;20043;-82
2024/03/25 04:26:36;;;;;;;15.88;6.75;;;2.40;99.90;;;;;;5071723;28;20040;-86
2024/03/25 04:29:22;;;;;;;14.45;6.38;;;2.40;99.90;;;;;;5070595;28;20052;-83
2024/03/25 04:32:08;;;;;;;14.48;6.95;;;2.40;99.90;;;;;;5070512;28;20040;-83
2024/03/25 04:34:54;;;;;;;12.70;6.63;;;2.30;99.90;;;;;;5066730;28;20040;-84
2024/03/25 04:37:41;;;;;;;14.32;7.70;;;2.30;99.90;;;;;;5074984;28;20048;-86
2024/03/25 04:40:28;;;;;;;13.07;6.70;;;2.40;99.90;;;;;;5073964;28;20040;-86
2024/03/25 04:43:14;;;;;;;11.80;7.28;;;2.30;99.90;;;;;;5074179;28;20040;-83
2024/03/25 04:46:03;;;;;;;10.38;6.35;;;2.30;99.90;;;;;;5082420;28;20040;-87
2024/03/25 04:48:50;;;;;;;14.00;7.10;;;2.30;99.90;;;;;;5094253;28;20048;-87
2024/03/25 04:51:36;;;;;;;16.35;6.78;;;2.30;99.90;;;;;;5056891;28;20058;-86
2024/03/25 04:54:22;;;;;;;16.27;6.97;;;2.30;1.00;;;;;;5082003;28;20670;-83
2024/03/25 04:57:11;;;;;;;18.40;7.80;;;2.30;1.00;;;;;;5081841;28;20059;-86
2024/03/25 04:59:58;;;;;;;14.43;6.80;;;2.30;1.00;;;;;;5087205;28;20473;-83
2024/03/25 05:02:44;;;;;;;13.95;8.02;;;2.20;1.00;;;;;;5088520;28;20054;-85
2024/03/25 05:05:30;;;;;;;20.52;8.90;;;2.20;1.00;;;;;;5088173;28;20040;-84
2024/03/25 05:08:17;;;;;;;19.45;8.35;;;2.20;1.00;;;;;;5074342;28;20047;-86
2024/03/25 05:11:03;;;;;;;14.57;7.70;;;2.10;1.00;;;;;;5072864;28;20531;-86
2024/03/25 05:13:49;;;;;;;14.80;7.80;;;2.20;21.00;;;;;;5072701;28;20066;-86
2024/03/25 05:16:38;;;;;;;15.15;7.78;;;2.20;77.40;;;;;;5059961;28;20044;-86
2024/03/25 05:19:25;;;;;;;15.55;8.32;;;2.20;99.90;;;;;;5085465;28;20476;-86
2024/03/25 05:22:11;;;;;;;15.13;7.60;;;2.20;99.90;;;;;;5086344;28;20044;-86
2024/03/25 05:24:57;;;;;;;17.27;8.02;;;2.20;99.90;;;;;;5086994;28;20504;-81
2024/03/25 05:27:44;;;;;;;13.60;8.15;;;2.20;99.90;;;;;;5096152;28;20044;-85
2024/03/25 05:30:30;;;;;;;17.23;7.63;;;2.20;99.90;;;;;;5082783;28;20048;-80
2024/03/25 05:33:19;;;;;;;17.23;8.88;;;2.10;99.90;;;;;;5083334;28;20044;-84
2024/03/25 05:36:05;;;;;;;13.23;8.35;;;2.20;99.90;;;;;;5073238;28;20040;-85
2024/03/25 05:38:52;;;;;;;18.58;9.07;;;2.20;99.90;;;;;;5072522;28;20044;-83
2024/03/25 05:41:38;;;;;;;16.33;8.93;;;2.20;99.90;;;;;;5072189;28;20077;-84
2024/03/25 05:44:24;;;;;;;16.92;7.80;;;2.30;99.90;;;;;;5086469;28;20040;-83
2024/03/25 05:47:10;;;;;;;16.98;8.25;;;2.20;99.90;;;;;;5086536;28;20695;-84
2024/03/25 05:49:57;;;;;;;15.60;8.70;;;2.30;99.90;;;;;;5078478;28;20060;-85
2024/03/25 05:52:43;;;;;;;18.25;8.70;;;2.30;99.90;;;;;;5093295;28;20048;-80
2024/03/25 05:55:29;;;;;;;18.10;8.80;;;2.40;99.90;;;;;;5107225;28;20044;-83
2024/03/25 05:58:16;;;;;;;15.93;8.23;;;2.40;99.90;;;;;;5108625;28;20044;-76
2024/03/25 06:01:04;;;;;;;15.15;7.70;;;2.40;99.90;;;;;;5108750;28;20024;-82
2024/03/25 06:03:50;;;;;;;18.27;8.30;;;2.40;99.90;;;;;;5107531;28;20044;-77
2024/03/25 06:06:36;;;;;;;16.77;8.57;;;2.50;99.90;;;;;;5093805;28;20097;-81
2024/03/25 06:09:23;;;;;;;16.23;9.07;;;2.50;99.90;;;;;;5085097;28;20138;-83
2024/03/25 06:12:09;;;;;;;16.38;8.70;;;2.50;99.90;;;;;;5088689;28;20044;-84
2024/03/25 06:14:56;;;;;;;16.83;7.78;;;2.50;19.00;;;;;;5087616;28;20044;-83
2024/03/25 06:17:42;;;;;;;16.75;8.23;;;2.50;1.00;;;;;;5076385;28;20051;-83
2024/03/25 06:20:28;;;;;;;14.32;8.85;;;2.50;1.00;;;;;;5084651;28;20123;-80
2024/03/25 06:23:28;;;;;;;19.50;8.85;;;2.60;1.00;;;;;;5089090;28;20044;-84
2024/03/25 06:26:14;;;;;;;16.60;8.80;;;2.60;1.00;;;;;;5084350;28;20036;-84
2024/03/25 06:29:02;;;;;;;18.92;10.52;;;2.60;1.00;;;;;;5083105;28;20048;-84
2024/03/25 06:34:53;;;;;;;15.68;8.05;;;2.80;99.90;;;;;;5083335;28;20043;-79
2024/03/25 06:37:40;;;;;;;12.32;7.70;;;2.90;99.90;;;;;;5084884;28;20048;-78
2024/03/25 06:40:26;;;;;;;18.20;7.85;;;3.00;99.90;;;;;;5083609;28;20451;-80
2024/03/25 06:43:16;;;;;;;20.00;8.05;;;3.10;99.90;;;;;;5086563;28;20100;-81
2024/03/25 06:46:02;;;;;;;17.15;8.52;;;3.20;99.90;;;;;;5081211;28;20105;-80
2024/03/25 06:48:49;;;;;;;16.23;8.30;;;3.30;99.90;;;;;;5088274;28;20040;-78
2024/03/25 06:51:35;;;;;;;15.48;7.78;;;3.40;1.00;;;;;;5092492;28;20048;-80
2024/03/25 06:54:22;;;;;;;16.38;7.70;;;3.50;1.00;;;;;;5077186;28;20051;-78
2024/03/25 06:57:08;;;;;;;16.13;7.13;;;3.50;99.90;;;;;;5092524;28;20431;-82
2024/03/25 06:59:57;;;;;;;15.75;7.25;;;3.50;99.90;;;;;;5076681;28;20048;-82
2024/03/25 07:02:44;;;;;;;17.58;8.15;;;3.60;99.90;;;;;;5087925;28;20062;-81
2024/03/25 07:05:31;;;;;;;19.88;8.20;;;3.60;99.90;;;;;;5086893;28;20043;-82
2024/03/25 07:08:19;;;;;;;18.67;7.68;;;3.70;19.60;;;;;;5088600;28;20044;-81
2024/03/25 07:11:06;;;;;;;15.02;7.25;;;3.70;1.00;;;;;;5085721;28;20048;-81
2024/03/25 07:13:52;;;;;;;14.75;7.70;;;3.90;1.00;;;;;;5086605;28;20066;-83
2024/03/25 07:16:38;;;;;;;18.70;6.53;;;3.90;99.90;;;;;;5085642;28;20444;-83
2024/03/25 07:19:25;;;;;;;17.15;6.70;;;3.90;99.90;;;;;;5087257;28;20040;-81
2024/03/25 07:22:11;;;;;;;10.68;6.03;;;3.90;99.90;;;;;;5086424;28;20074;-81
2024/03/25 07:24:57;;;;;;;13.18;7.43;;;3.90;99.90;;;;;;5071686;28;20042;-81
2024/03/25 07:27:44;;;;;;;12.25;7.53;;;4.00;99.90;;;;;;5081382;28;20040;-81
2024/03/25 07:30:30;;;;;;;13.98;7.70;;;4.20;99.90;;;;;;5082434;28;20044;-81
2024/03/25 07:33:17;;;;;;;13.82;6.88;;;4.30;64.80;;;;;;5096342;28;20036;-81
2024/03/25 07:36:04;;;;;;;14.75;6.57;;;4.60;8.90;;;;;;5072313;28;20041;-84
2024/03/25 07:38:50;;;;;;;10.60;5.80;;;5.00;1.00;;;;;;5073715;28;20066;-82
2024/03/25 07:41:37;;;;;;;11.65;5.32;;;5.30;99.90;;;;;;5086678;28;20090;-81
2024/03/25 07:44:26;;;;;;;11.98;5.05;;;6.00;99.90;;;;;;5089321;28;20170;-81
2024/03/25 07:47:12;;;;;;;7.63;4.43;;;6.80;99.90;;;;;;5090736;28;20032;-80
2024/03/25 07:49:59;;;;;;;7.63;5.13;;;7.30;1.00;;;;;;5076234;28;20043;-82
2024/03/25 07:52:46;;;;;;;7.38;3.80;;;7.90;1.00;;;;;;5071222;28;20120;-81
2024/03/25 07:55:32;;;;;;;11.27;4.05;;;8.20;99.90;;;;;;5057918;28;20106;-81
2024/03/25 07:58:18;;;;;;;6.05;3.80;;;8.50;99.90;;;;;;5069922;28;20393;-83
2024/03/25 08:01:05;;;;;;;7.88;3.50;;;8.90;42.80;;;;;;5068769;28;20464;-85
2024/03/25 08:03:52;;;;;;;8.35;3.40;;;9.50;1.00;;;;;;5077559;28;20043;-80
2024/03/25 08:06:39;;;;;;;6.38;3.25;;;9.90;1.00;;;;;;5082361;28;20085;-83
2024/03/25 08:09:28;;;;;;;4.45;3.10;;;10.30;99.90;;;;;;5070450;28;20044;-80
2024/03/25 08:12:14;;;;;;;6.88;3.55;;;10.50;99.90;;;;;;5100946;28;20040;-81
2024/03/25 08:15:01;;;;;;;8.68;4.00;;;10.20;99.90;;;;;;5102368;28;20127;-83
2024/03/25 08:17:47;;;;;;;9.05;3.58;;;10.10;99.90;;;;;;5093540;28;20048;-80
2024/03/25 08:20:33;;;;;;;10.93;2.90;;;10.50;99.90;;;;;;5093802;28;20044;-82
2024/03/25 08:23:23;;;;;;;5.65;3.08;;;11.50;99.90;;;;;;5092269;28;20058;-83
2024/03/25 08:26:09;;;;;;;8.18;3.67;;;11.50;99.90;;;;;;5074696;28;20048;-84
2024/03/25 08:28:56;;;;;;;9.25;3.13;;;10.70;99.90;;;;;;5087209;28;20501;-83
2024/03/25 08:31:42;;;;;;;7.82;3.55;;;10.70;99.90;;;;;;5073282;28;20541;-84
2024/03/25 08:34:31;;;;;;;6.05;2.80;;;11.50;99.90;;;;;;5088784;28;20044;-83
2024/03/25 08:37:17;;;;;;;6.57;2.75;;;12.30;99.90;;;;;;5086746;28;20044;-82
2024/03/25 08:40:05;;;;;;;6.35;2.70;;;13.10;99.90;;;;;;5086524;28;20048;-84
2024/03/25 08:42:54;;;;;;;4.70;2.90;;;13.30;99.90;;;;;;5092748;28;20429;-82
2024/03/25 08:45:40;;;;;;;8.88;3.20;;;12.50;89.90;;;;;;5097139;28;20048;-80
2024/03/25 08:48:27;;;;;;;6.40;3.28;;;12.50;67.50;;;;;;5069228;28;20036;-79
2024/03/25 08:51:23;;;;;;;;;;;;;;;;;;;;;
2024/03/25 08:54:28;;;;;;;6.28;2.55;;;12.10;49.60;;;;;;5099808;28;20037;-83
2024/03/25 08:57:15;;;;;;;8.95;3.70;;;12.60;53.20;;;;;;5079379;28;20063;-80
2024/03/25 09:00:03;;;;;;;13.38;4.50;;;13.60;49.30;;;;;;5089041;28;20044;-83
2024/03/25 09:02:50;;;;;;;4.50;2.95;;;13.50;24.00;;;;;;5085234;28;20044;-83
2024/03/25 09:05:39;;;;;;;8.40;3.22;;;13.00;12.40;;;;;;5086542;28;20085;-83
2024/03/25 09:08:26;;;;;;;6.65;3.10;;;13.00;8.30;;;;;;5076335;28;20048;-82
2024/03/25 09:11:12;;;;;;;6.03;2.70;;;12.90;3.40;;;;;;5089901;28;20048;-80
2024/03/25 09:13:59;;;;;;;8.85;2.65;;;12.90;1.00;;;;;;5083311;28;20044;-83
2024/03/25 09:16:45;;;;;;;7.63;2.92;;;12.60;1.00;;;;;;5088887;28;20047;-82
2024/03/25 09:19:32;;;;;;;6.05;3.20;;;12.10;1.00;;;;;;5088297;28;20108;-80
2024/03/25 09:22:18;;;;;;;8.23;3.20;;;12.00;1.00;;;;;;5088052;28;20048;-81
2024/03/25 09:25:05;;;;;;;7.10;3.10;;;12.20;1.00;;;;;;5087952;28;20511;-81
2024/03/25 09:27:52;;;;;;;7.50;2.97;;;12.50;1.00;;;;;;5091177;28;20068;-83
2024/03/25 09:30:39;;;;;;;6.55;2.78;;;12.70;1.00;;;;;;5082247;28;20054;-84
2024/03/25 09:33:25;;;;;;;9.48;2.85;;;12.70;1.00;;;;;;5057465;28;20063;-81
2024/03/25 09:36:12;;;;;;;8.07;2.50;;;13.30;1.00;;;;;;5069405;28;20051;-81
2024/03/25 09:38:58;;;;;;;6.72;2.40;;;14.30;1.00;;;;;;5073473;28;20043;-82
2024/03/25 09:41:46;;;;;;;7.35;2.85;;;14.50;1.00;;;;;;5088037;28;20044;-81
2024/03/25 09:44:32;;;;;;;6.45;2.70;;;14.10;1.00;;;;;;5087816;28;20112;-82
2024/03/25 09:47:18;;;;;;;6.93;2.65;;;12.80;1.00;;;;;;5088891;28;20040;-81
2024/03/25 09:50:08;;;;;;;6.43;2.55;;;13.10;1.00;;;;;;5083284;28;20052;-80
2024/03/25 09:52:55;;;;;;;8.73;3.00;;;13.40;1.00;;;;;;5082723;28;20506;-82
2024/03/25 09:55:42;;;;;;;6.63;2.25;;;13.70;1.00;;;;;;5087490;28;20097;-81
2024/03/25 09:58:30;;;;;;;7.18;2.72;;;15.10;1.00;;;;;;5088169;28;20040;-81
2024/03/25 10:01:17;;;;;;;6.63;2.35;;;16.70;1.00;;;;;;5106689;28;20111;-81
2024/03/25 10:04:03;;;;;;;5.93;2.20;;;17.90;1.00;;;;;;5107372;28;20491;-81
2024/03/25 10:06:50;;;;;;;5.28;2.13;;;18.00;1.00;;;;;;5115743;28;20038;-81
2024/03/25 10:09:36;;;;;;;8.68;2.40;;;16.60;1.00;;;;;;5107938;28;20092;-81
2024/03/25 10:12:22;;;;;;;6.55;2.13;;;15.90;1.00;;;;;;5097494;28;20048;-79
2024/03/25 10:15:14;;;;;;;5.20;2.10;;;16.60;1.00;;;;;;5096235;28;20146;-82
2024/03/25 10:18:01;;;;;;;2.97;1.85;;;17.40;1.00;;;;;;5060114;28;20058;-82
2024/03/25 10:20:51;;;;;;;2.92;1.92;;;17.70;1.00;;;;;;5081044;28;20040;-81
2024/03/25 10:23:42;;;;;;;4.10;2.05;;;17.20;1.00;;;;;;5092587;28;20191;-81
2024/03/25 10:26:31;;;;;;;3.75;2.10;;;15.80;1.00;;;;;;5087199;28;20048;-78
2024/03/25 10:29:17;;;;;;;5.93;1.90;;;15.80;1.00;;;;;;5085643;28;20051;-80
2024/03/25 10:32:04;;;;;;;4.60;1.83;;;15.60;1.00;;;;;;5077494;28;20365;-82
2024/03/25 10:34:51;;;;;;;6.88;2.10;;;16.20;1.00;;;;;;5075528;28;20567;-81
2024/03/25 10:37:39;;;;;;;3.67;2.15;;;17.00;1.00;;;;;;5070638;28;20461;-81
2024/03/25 10:40:30;;;;;;;2.88;1.98;;;17.90;1.00;;;;;;5082633;28;20050;-82
2024/03/25 10:43:17;;;;;;;4.70;1.60;;;18.40;1.00;;;;;;5071331;28;20687;-79
2024/03/25 10:46:04;;;;;;;2.88;1.60;;;18.60;1.00;;;;;;5092752;28;20044;-79
2024/03/25 10:49:27;;;;;;;2.15;1.45;;;18.50;1.00;;;;;;5084701;28;20040;-80
2024/03/25 10:52:46;;;;;;;2.88;1.80;;;18.70;1.00;;;;;;5072169;28;20134;-82
2024/03/25 10:55:50;;;;;;;3.00;1.40;;;17.80;1.00;;;;;;5088760;28;20044;-82
2024/03/25 10:58:37;;;;;;;3.72;1.90;;;16.20;1.00;;;;;;5089102;28;20044;-82
2024/03/25 11:01:25;;;;;;;3.53;2.40;;;14.30;1.00;;;;;;5087570;28;20059;-83
2024/03/25 11:04:11;;;;;;;2.53;1.50;;;13.40;1.00;;;;;;5087430;28;20058;-82
2024/03/25 11:07:12;;;;;;;4.60;1.90;;;14.00;1.00;;;;;;5088995;28;20036;-80
2024/03/25 11:10:08;;;;;;;2.40;1.80;;;14.00;1.00;;;;;;5089954;28;20047;-82
2024/03/25 11:12:55;;;;;;;6.72;1.70;;;14.00;1.00;;;;;;5086080;28;20040;-80
2024/03/25 11:15:45;;;;;;;3.65;2.33;;;14.40;1.00;;;;;;5063253;28;20051;-80
2024/03/25 11:18:33;;;;;;;3.20;1.52;;;15.40;1.00;;;;;;5079127;28;20046;-81
2024/03/25 11:21:25;;;;;;;2.63;1.80;;;16.40;1.00;;;;;;5083721;28;20051;-81
2024/03/25 11:24:11;;;;;;;3.10;1.40;;;16.30;1.00;;;;;;5097247;28;20103;-81
2024/03/25 11:26:58;;;;;;;3.83;1.52;;;17.30;1.00;;;;;;5088648;28;20037;-81
2024/03/25 11:29:45;;;;;;;3.00;1.40;;;17.80;1.00;;;;;;5086766;28;20147;-81
2024/03/25 11:32:44;;;;;;;3.92;1.70;;;18.30;1.00;;;;;;5086450;28;20091;-82
2024/03/25 11:35:36;;;;;;;3.25;1.38;;;18.00;1.00;;;;;;5089148;28;20048;-80
2024/03/25 11:38:23;;;;;;;4.07;1.23;;;17.60;1.00;;;;;;5074285;28;20484;-80
2024/03/25 11:41:13;;;;;;;4.10;1.40;;;18.60;1.00;;;;;;5086265;28;20048;-81
2024/03/25 11:44:00;;;;;;;2.50;1.30;;;19.00;1.00;;;;;;5071439;28;20495;-81
2024/03/25 11:46:46;;;;;;;3.63;1.52;;;19.90;1.00;;;;;;5071883;28;20050;-80
2024/03/25 11:49:33;;;;;;;4.40;1.90;;;19.90;1.00;;;;;;5074898;28;20077;-82
2024/03/25 11:52:20;;;;;;;2.85;1.33;;;20.10;1.00;;;;;;5083884;28;20044;-80
2024/03/25 11:55:11;;;;;;;2.97;1.58;;;20.50;1.00;;;;;;5083624;28;20066;-81
2024/03/25 11:57:57;;;;;;;4.38;1.40;;;19.50;1.00;;;;;;5086343;28;20064;-80
2024/03/25 12:00:54;;;;;;;6.10;1.60;;;18.00;1.00;;;;;;5089005;28;20509;-80
2024/03/25 12:03:40;;;;;;;6.50;2.15;;;17.80;1.00;;;;;;5080748;28;20393;-80
2024/03/25 12:06:26;;;;;;;2.67;1.20;;;18.40;1.00;;;;;;5092177;28;20067;-83
2024/03/25 12:12:17;;;;;;;4.25;1.55;;;18.50;1.00;;;;;;5097598;28;20058;-80
2024/03/25 12:15:04;;;;;;;4.63;1.92;;;18.20;1.00;;;;;;5085781;28;20050;-81
2024/03/25 12:17:51;;;;;;;5.97;1.80;;;17.30;1.00;;;;;;5093090;28;20055;-78
2024/03/25 12:20:38;;;;;;;5.63;1.90;;;16.50;1.00;;;;;;5084764;28;20061;-81
2024/03/25 12:23:32;;;;;;;3.45;1.70;;;16.90;1.00;;;;;;5083063;28;20042;-83
2024/03/25 12:26:20;;;;;;;5.68;1.70;;;18.00;1.00;;;;;;5084427;28;20040;-81
2024/03/25 12:29:06;;;;;;;3.65;1.80;;;18.40;1.00;;;;;;5083674;28;20048;-81
2024/03/25 12:32:03;;;;;;;7.57;2.13;;;18.70;1.00;;;;;;5083543;28;20114;-82
2024/03/25 12:34:49;;;;;;;3.22;1.65;;;18.20;1.00;;;;;;5068522;28;20451;-82
2024/03/25 12:37:44;;;;;;;2.95;1.65;;;19.20;1.00;;;;;;5070893;28;20052;-83
2024/03/25 12:40:30;;;;;;;3.38;1.52;;;19.10;1.00;;;;;;5069310;28;20048;-83
2024/03/25 12:43:17;;;;;;;3.60;1.52;;;19.00;1.00;;;;;;5069678;28;20577;-81
2024/03/25 12:46:03;;;;;;;4.53;1.60;;;19.40;1.00;;;;;;5077327;28;20070;-80
2024/03/25 12:48:50;;;;;;;3.10;1.60;;;19.00;1.00;;;;;;5062573;28;20073;-79
2024/03/25 12:51:36;;;;;;;4.03;1.55;;;18.90;1.00;;;;;;5070557;28;20478;-81
2024/03/25 12:54:23;;;;;;;2.13;1.30;;;20.20;1.00;;;;;;5083566;28;20052;-84
2024/03/25 12:57:11;;;;;;;4.03;1.38;;;20.10;1.00;;;;;;5081950;28;20054;-81
2024/03/25 12:59:57;;;;;;;4.22;1.58;;;19.70;1.00;;;;;;5070037;28;20050;-83
2024/03/25 13:02:44;;;;;;;3.63;1.20;;;20.00;1.00;;;;;;5091128;28;20036;-79
2024/03/25 13:05:43;;;;;;;2.22;1.33;;;19.70;1.00;;;;;;5089826;28;20044;-81
2024/03/25 13:08:30;;;;;;;4.50;1.50;;;18.60;1.00;;;;;;5091390;28;20060;-80
2024/03/25 13:11:16;;;;;;;3.60;1.63;;;19.10;1.00;;;;;;5090986;28;20052;-80
2024/03/25 13:14:06;;;;;;;8.05;1.25;;;19.70;1.00;;;;;;5089072;28;20541;-79
2024/03/25 13:16:55;;;;;;;4.88;1.50;;;20.30;1.00;;;;;;5088644;28;20048;-82
2024/03/25 13:19:41;;;;;;;2.60;1.25;;;21.40;1.00;;;;;;5072563;28;20114;-80
2024/03/25 13:22:28;;;;;;;4.65;1.30;;;21.80;1.00;;;;;;5073494;28;20047;-81
2024/03/25 13:25:15;;;;;;;3.53;1.40;;;21.50;1.00;;;;;;5072204;28;20040;-82
2024/03/25 13:28:01;;;;;;;4.90;1.30;;;20.10;1.00;;;;;;5082561;28;20046;-82
2024/03/25 13:30:48;;;;;;;3.90;1.17;;;19.90;1.00;;;;;;5073676;28;20046;-83
2024/03/25 13:33:35;;;;;;;2.80;1.58;;;20.70;1.00;;;;;;5079623;28;20054;-81
2024/03/25 13:36:21;;;;;;;3.92;1.50;;;19.90;1.00;;;;;;5097282;28;20099;-83
2024/03/25 13:39:08;;;;;;;5.97;1.20;;;19.60;1.00;;;;;;5095801;28;20102;-81
2024/03/25 13:41:55;;;;;;;1.52;1.00;;;20.10;1.00;;;;;;5089314;28;20040;-83
2024/03/25 13:44:41;;;;;;;2.47;1.27;;;21.00;1.00;;;;;;5087642;28;20040;-82
2024/03/25 13:47:27;;;;;;;3.42;1.30;;;20.70;1.00;;;;;;5101285;28;20095;-80
2024/03/25 13:50:14;;;;;;;3.05;1.60;;;20.10;1.00;;;;;;5107509;28;20043;-80
2024/03/25 13:53:00;;;;;;;5.68;1.58;;;19.80;1.00;;;;;;5108342;28;20040;-79
2024/03/25 13:55:47;;;;;;;5.53;1.48;;;20.10;1.00;;;;;;5082021;28;20032;-80
2024/03/25 13:58:33;;;;;;;4.30;1.65;;;20.30;1.00;;;;;;5073128;28;20032;-82
2024/03/25 14:01:24;;;;;;;1.85;1.20;;;20.40;1.00;;;;;;5088782;28;20036;-81
2024/03/25 14:04:10;;;;;;;4.35;1.60;;;19.10;1.00;;;;;;5073265;28;20333;-82
2024/03/25 14:06:56;;;;;;;2.80;1.13;;;18.20;1.00;;;;;;5091864;28;20036;-80
2024/03/25 14:09:44;;;;;;;4.78;1.60;;;18.50;1.00;;;;;;5081980;28;20059;-82
2024/03/25 14:12:32;;;;;;;3.45;1.65;;;19.50;1.00;;;;;;5089695;28;20527;-80
2024/03/25 14:15:19;;;;;;;3.15;1.60;;;19.30;1.00;;;;;;5095562;28;20044;-83
2024/03/25 14:18:07;;;;;;;5.50;1.70;;;20.20;1.00;;;;;;5085669;28;20044;-85
2024/03/25 14:20:54;;;;;;;3.50;1.50;;;19.60;1.00;;;;;;5084933;28;20044;-82
2024/03/25 14:23:43;;;;;;;4.25;1.63;;;19.20;1.00;;;;;;5083770;28;20553;-82
2024/03/25 14:26:30;;;;;;;4.10;1.88;;;18.60;1.00;;;;;;5071256;28;20402;-84
2024/03/25 14:29:16;;;;;;;3.97;1.77;;;17.50;1.00;;;;;;5086564;28;20048;-80
2024/03/25 14:32:03;;;;;;;2.42;1.42;;;17.30;1.00;;;;;;5086572;28;20044;-80
2024/03/25 14:34:49;;;;;;;4.07;2.10;;;17.50;1.00;;;;;;5075501;28;20055;-81
2024/03/25 14:37:36;;;;;;;2.97;1.80;;;17.30;1.00;;;;;;5074394;28;20097;-82
2024/03/25 14:40:22;;;;;;;6.07;2.30;;;17.60;1.00;;;;;;5074708;28;20044;-81
2024/03/25 14:43:08;;;;;;;5.22;2.08;;;16.90;1.00;;;;;;5078652;28;20046;-81
2024/03/25 14:45:55;;;;;;;3.97;1.95;;;17.40;1.00;;;;;;5072967;28;20054;-82
2024/03/25 14:48:41;;;;;;;3.50;1.38;;;17.30;1.00;;;;;;5073880;28;20120;-78